Time;durP1;ratioP1;P1;durP2;ratioP2;P2;SDS_P1;SDS_P2;PMS_P1;PMS_P2;Temp;Humidity;BMP_temperature;BMP_pressure;BME280_temperature;BME280_humidity;BME280_pressure;Samples;Min_cycle;Max_cycle;Signal;HPM_P1;HPM_P2
2023/08/02 00:01:02;;;;;;;82.85;52.85;;;19.40;84.50;;;;;;4925508;28;90373;-44
2023/08/02 00:03:28;;;;;;;81.93;53.15;;;19.30;84.50;;;;;;4926068;28;89792;-43
2023/08/02 00:05:55;;;;;;;81.60;53.05;;;19.30;84.00;;;;;;4928668;28;88791;-43
2023/08/02 00:08:22;;;;;;;82.30;53.13;;;19.30;84.20;;;;;;4927170;28;89792;-45
2023/08/02 00:10:47;;;;;;;82.55;53.08;;;19.30;84.50;;;;;;4921362;28;91096;-45
2023/08/02 00:13:13;;;;;;;82.18;52.78;;;19.30;84.50;;;;;;4929653;28;91408;-44
2023/08/02 00:15:39;;;;;;;82.72;53.10;;;19.30;84.50;;;;;;4924622;28;91031;-43
2023/08/02 00:18:05;;;;;;;81.57;52.72;;;19.30;84.90;;;;;;4929183;28;90490;-45
2023/08/02 00:20:30;;;;;;;82.07;53.03;;;19.30;85.00;;;;;;4925881;28;91210;-44
2023/08/02 00:22:56;;;;;;;82.43;53.13;;;19.30;86.20;;;;;;4922807;28;90582;-43
2023/08/02 00:25:22;;;;;;;81.15;52.83;;;19.30;84.40;;;;;;4912542;28;89585;-43
2023/08/02 00:27:48;;;;;;;81.18;52.85;;;19.30;85.50;;;;;;4927265;28;91807;-43
2023/08/02 00:30:13;;;;;;;82.05;52.83;;;19.30;85.00;;;;;;4922955;28;89756;-44
2023/08/02 00:32:46;;;;;;;82.93;53.15;;;19.30;84.90;;;;;;4929159;28;92846;-43
2023/08/02 00:35:12;;;;;;;83.05;53.15;;;19.30;85.40;;;;;;4922895;28;94806;-44
2023/08/02 00:37:38;;;;;;;82.30;52.70;;;19.30;84.40;;;;;;4910608;28;92511;-43
2023/08/02 00:40:04;;;;;;;82.05;53.22;;;19.30;85.30;;;;;;4924039;28;90892;-46
2023/08/02 00:42:30;;;;;;;81.55;53.05;;;19.30;85.00;;;;;;4925924;28;90664;-46
2023/08/02 00:44:56;;;;;;;81.82;52.63;;;19.30;84.40;;;;;;4925756;28;89541;-45
2023/08/02 00:47:22;;;;;;;82.65;53.13;;;19.30;84.60;;;;;;4906220;28;91454;-45
2023/08/02 00:49:47;;;;;;;82.60;52.97;;;19.30;84.40;;;;;;4920296;28;91274;-45
2023/08/02 00:52:13;;;;;;;82.22;53.08;;;19.30;84.60;;;;;;4926260;28;89800;-46
2023/08/02 00:54:41;;;;;;;82.60;52.85;;;19.30;85.50;;;;;;4925068;28;91280;-48
2023/08/02 00:57:09;;;;;;;81.40;52.67;;;19.30;85.00;;;;;;4923172;28;91702;-48
2023/08/02 00:59:39;;;;;;;83.25;52.85;;;19.30;84.80;;;;;;4924415;28;91679;-46
2023/08/02 01:02:06;;;;;;;82.78;52.88;;;19.30;84.80;;;;;;4926287;28;92706;-46
2023/08/02 01:04:33;;;;;;;81.50;52.63;;;19.30;85.00;;;;;;4922626;28;90815;-44
2023/08/02 01:07:23;;;;;;;82.88;52.85;;;19.30;85.80;;;;;;4926388;28;91098;-44
2023/08/02 01:09:58;;;;;;;81.60;52.88;;;19.30;84.70;;;;;;4928559;28;90269;-47
2023/08/02 01:12:25;;;;;;;82.10;52.83;;;19.30;84.50;;;;;;4923206;28;92406;-44
2023/08/02 01:14:55;;;;;;;81.05;52.70;;;19.30;85.80;;;;;;4929108;28;90588;-46
2023/08/02 01:17:25;;;;;;;82.03;52.97;;;19.30;84.80;;;;;;4929212;28;90852;-47
2023/08/02 01:19:51;;;;;;;82.07;52.88;;;19.30;84.50;;;;;;4924034;28;89316;-48
2023/08/02 01:22:17;;;;;;;82.10;52.90;;;19.30;84.20;;;;;;4927608;28;89633;-46
2023/08/02 01:24:43;;;;;;;81.75;52.88;;;19.30;84.20;;;;;;4924269;28;89697;-43
2023/08/02 01:27:19;;;;;;;82.65;52.85;;;19.30;84.70;;;;;;4924262;28;92212;-44
2023/08/02 01:29:47;;;;;;;81.47;52.85;;;19.30;86.40;;;;;;4924108;28;89814;-45
2023/08/02 01:32:15;;;;;;;82.32;53.13;;;19.30;85.50;;;;;;4922162;28;93535;-45
2023/08/02 01:34:41;;;;;;;82.35;53.00;;;19.30;85.90;;;;;;4919930;28;89753;-44
2023/08/02 01:37:06;;;;;;;82.03;52.97;;;19.30;85.00;;;;;;4924918;28;92423;-44
2023/08/02 01:39:32;;;;;;;81.43;52.63;;;19.30;85.80;;;;;;4923413;28;89941;-44
2023/08/02 01:41:58;;;;;;;82.07;52.80;;;19.30;85.80;;;;;;4922496;28;90797;-47
2023/08/02 01:44:23;;;;;;;82.38;53.22;;;19.30;84.60;;;;;;4899287;28;89486;-45
2023/08/02 01:46:49;;;;;;;81.97;52.92;;;19.30;86.50;;;;;;4914017;28;91182;-47
2023/08/02 01:49:14;;;;;;;82.93;53.15;;;19.30;86.40;;;;;;4917527;28;90425;-46
2023/08/02 01:51:40;;;;;;;82.70;53.05;;;19.30;86.10;;;;;;4920419;28;90929;-46
2023/08/02 01:54:06;;;;;;;81.10;52.90;;;19.30;86.60;;;;;;4899971;28;92795;-45
2023/08/02 01:56:31;;;;;;;82.90;52.83;;;19.30;85.20;;;;;;4919498;28;90290;-46
2023/08/02 01:58:57;;;;;;;81.25;52.60;;;19.20;86.80;;;;;;4918644;28;92975;-46
2023/08/02 02:01:22;;;;;;;81.78;52.97;;;19.20;84.40;;;;;;4927933;28;89457;-44
2023/08/02 02:03:48;;;;;;;82.75;52.90;;;19.30;85.90;;;;;;4924220;28;89879;-45
2023/08/02 02:06:13;;;;;;;83.55;53.15;;;19.20;85.60;;;;;;4923039;28;90260;-45
2023/08/02 02:08:39;;;;;;;82.75;53.03;;;19.20;85.70;;;;;;4925109;28;91031;-45
2023/08/02 02:11:05;;;;;;;81.80;52.92;;;19.20;86.50;;;;;;4919329;28;90613;-44
2023/08/02 02:13:31;;;;;;;81.43;52.58;;;19.30;85.50;;;;;;4927455;28;89963;-46
2023/08/02 02:15:56;;;;;;;81.72;52.97;;;19.20;85.40;;;;;;4923667;28;91048;-45
2023/08/02 02:18:22;;;;;;;81.78;53.05;;;19.20;85.70;;;;;;4927072;28;89675;-44
2023/08/02 02:20:48;;;;;;;83.13;53.15;;;19.20;85.60;;;;;;4925083;28;91289;-46
2023/08/02 02:23:13;;;;;;;82.80;52.90;;;19.20;87.10;;;;;;4909881;28;92656;-44
2023/08/02 02:25:39;;;;;;;82.43;53.15;;;19.20;87.00;;;;;;4924202;28;92531;-45
2023/08/02 02:28:05;;;;;;;81.68;53.13;;;19.20;85.40;;;;;;4922348;28;90298;-46
2023/08/02 02:30:30;;;;;;;81.90;52.67;;;19.20;86.80;;;;;;4923144;28;91887;-46
2023/08/02 02:32:56;;;;;;;81.53;52.72;;;19.20;86.00;;;;;;4920654;28;91707;-47
2023/08/02 02:35:22;;;;;;;81.63;52.85;;;19.20;86.40;;;;;;4918317;28;89782;-43
2023/08/02 02:37:47;;;;;;;81.78;52.85;;;19.20;85.10;;;;;;4919084;28;90690;-44
2023/08/02 02:40:13;;;;;;;81.15;52.85;;;19.20;85.40;;;;;;4904310;28;92807;-44
2023/08/02 02:42:40;;;;;;;81.68;53.10;;;19.20;87.80;;;;;;4955683;22;89752;-86
2023/08/02 02:45:07;;;;;;;81.75;53.03;;;19.20;86.60;;;;;;4988024;28;89521;-85
2023/08/02 02:47:33;;;;;;;81.75;52.92;;;19.20;85.90;;;;;;4965987;28;92483;-86
2023/08/02 02:49:58;;;;;;;81.00;52.85;;;19.20;88.40;;;;;;4964200;28;89273;-88
2023/08/02 02:52:24;;;;;;;80.75;52.70;;;19.20;86.60;;;;;;4970941;28;89266;-86
2023/08/02 02:54:49;;;;;;;81.43;52.83;;;19.20;85.20;;;;;;4968872;28;92366;-86
2023/08/02 02:57:16;;;;;;;81.40;52.72;;;19.10;85.00;;;;;;4967012;28;90779;-89
2023/08/02 02:59:42;;;;;;;82.13;52.90;;;19.20;85.40;;;;;;4985582;28;89580;-88
2023/08/02 03:02:08;;;;;;;81.38;52.67;;;19.20;86.30;;;;;;4964424;28;90743;-87
2023/08/02 03:04:34;;;;;;;82.93;52.95;;;19.20;85.90;;;;;;4983082;28;90399;-87
2023/08/02 03:06:59;;;;;;;81.47;52.65;;;19.10;84.80;;;;;;4966288;28;92669;-86
2023/08/02 03:09:25;;;;;;;81.75;53.00;;;19.10;86.90;;;;;;4967081;28;90291;-87
2023/08/02 03:11:51;;;;;;;82.55;53.13;;;19.10;86.20;;;;;;4963888;28;92745;-87
2023/08/02 03:14:16;;;;;;;81.00;52.60;;;19.10;86.10;;;;;;4966709;28;90160;-87
2023/08/02 03:16:43;;;;;;;82.80;52.90;;;19.10;85.60;;;;;;4970782;28;90739;-87
2023/08/02 03:19:10;;;;;;;81.90;52.97;;;19.20;87.20;;;;;;4962694;28;89394;-89
2023/08/02 03:21:35;;;;;;;81.63;52.90;;;19.10;86.00;;;;;;4965015;28;88112;-87
2023/08/02 03:24:01;;;;;;;80.72;52.78;;;19.10;86.90;;;;;;4964723;28;93297;-87
2023/08/02 03:26:27;;;;;;;81.40;52.78;;;19.10;85.10;;;;;;4984625;28;89117;-87
2023/08/02 03:28:52;;;;;;;81.32;52.75;;;19.10;88.20;;;;;;4966299;28;90446;-88
2023/08/02 03:31:18;;;;;;;80.75;52.75;;;19.10;85.90;;;;;;4962465;28;90535;-86
2023/08/02 03:33:43;;;;;;;81.35;52.50;;;19.10;87.30;;;;;;4960142;28;93035;-86
2023/08/02 03:36:09;;;;;;;81.65;52.63;;;19.10;86.80;;;;;;4980371;28;89522;-87
2023/08/02 03:38:35;;;;;;;82.00;52.95;;;19.10;86.50;;;;;;4965070;28;89448;-87
2023/08/02 03:41:00;;;;;;;81.35;52.78;;;19.10;85.40;;;;;;4968266;28;91649;-88
2023/08/02 03:43:26;;;;;;;81.55;52.90;;;19.10;86.50;;;;;;4982869;28;89937;-87
2023/08/02 03:45:51;;;;;;;80.97;52.38;;;19.10;86.20;;;;;;4977922;28;91479;-87
2023/08/02 03:48:17;;;;;;;81.53;52.83;;;19.10;85.60;;;;;;4982091;28;88713;-86
2023/08/02 03:50:43;;;;;;;81.18;52.83;;;19.10;86.30;;;;;;4971931;28;90605;-87
2023/08/02 03:53:09;;;;;;;81.20;52.67;;;19.10;88.00;;;;;;4968596;28;93940;-87
2023/08/02 03:55:35;;;;;;;82.03;52.90;;;19.10;86.00;;;;;;4966791;28;90792;-87
2023/08/02 03:58:00;;;;;;;81.70;52.78;;;19.10;86.20;;;;;;4970941;28;89346;-87
2023/08/02 04:00:26;;;;;;;80.10;52.45;;;19.10;87.10;;;;;;4970799;28;90685;-86
2023/08/02 04:02:53;;;;;;;81.10;52.70;;;19.10;85.90;;;;;;4968776;28;89558;-87
2023/08/02 04:05:18;;;;;;;81.28;52.90;;;19.10;87.10;;;;;;4950905;28;91599;-87
2023/08/02 04:07:44;;;;;;;80.18;52.33;;;19.10;88.00;;;;;;4968316;28;89982;-90
2023/08/02 04:10:10;;;;;;;81.18;52.72;;;19.10;85.50;;;;;;4972322;28;90183;-87
2023/08/02 04:12:36;;;;;;;81.32;52.83;;;19.00;87.60;;;;;;4963814;28;90083;-87
2023/08/02 04:15:03;;;;;;;81.25;53.00;;;19.10;87.00;;;;;;4958965;28;90879;-88
2023/08/02 04:17:28;;;;;;;81.10;52.40;;;19.10;87.70;;;;;;4979729;28;91861;-86
2023/08/02 04:19:54;;;;;;;80.50;52.33;;;19.10;88.00;;;;;;4963248;28;89239;-87
2023/08/02 04:22:20;;;;;;;81.47;52.47;;;19.00;86.80;;;;;;4961931;28;93660;-87
2023/08/02 04:24:47;;;;;;;80.57;52.55;;;19.10;85.90;;;;;;4964338;28;91465;-87
2023/08/02 04:27:12;;;;;;;80.97;52.67;;;19.10;87.00;;;;;;4980373;28;89148;-87
2023/08/02 04:29:38;;;;;;;81.05;52.92;;;19.10;87.50;;;;;;4967247;28;90853;-87
2023/08/02 04:32:04;;;;;;;80.78;52.58;;;19.00;86.90;;;;;;4969646;28;93710;-86
2023/08/02 04:34:30;;;;;;;80.70;52.80;;;19.10;88.30;;;;;;4972091;28;91653;-86
2023/08/02 04:36:55;;;;;;;80.40;52.40;;;19.10;86.90;;;;;;4962748;28;90634;-87
2023/08/02 04:39:21;;;;;;;83.13;53.25;;;19.00;87.40;;;;;;4969709;28;91500;-87
2023/08/02 04:41:47;;;;;;;82.05;52.75;;;19.10;88.70;;;;;;4984317;28;91242;-89
2023/08/02 04:44:12;;;;;;;80.38;52.08;;;19.10;88.20;;;;;;4947366;28;91919;-89
2023/08/02 04:46:38;;;;;;;81.70;52.55;;;19.10;86.80;;;;;;4946234;28;89450;-86
2023/08/02 04:49:03;;;;;;;80.78;52.65;;;19.00;87.20;;;;;;4945665;28;89243;-90
2023/08/02 04:51:29;;;;;;;80.68;52.58;;;19.00;87.80;;;;;;4942355;28;92685;-87
2023/08/02 04:53:54;;;;;;;81.32;52.75;;;19.00;88.20;;;;;;4941450;28;92123;-89
2023/08/02 04:56:21;;;;;;;81.85;52.75;;;19.10;87.50;;;;;;4937356;28;89439;-86
2023/08/02 04:58:47;;;;;;;80.47;52.53;;;19.00;86.80;;;;;;4945072;28;88807;-87
2023/08/02 05:01:12;;;;;;;82.70;52.53;;;19.10;89.10;;;;;;4943999;28;92806;-88
2023/08/02 05:03:38;;;;;;;82.93;52.50;;;19.10;87.50;;;;;;4942006;28;89767;-88
2023/08/02 05:06:05;;;;;;;80.63;52.28;;;19.10;87.40;;;;;;4943042;28;90219;-88
2023/08/02 05:08:36;;;;;;;81.47;52.92;;;19.10;88.50;;;;;;4945612;28;89166;-88
2023/08/02 05:11:05;;;;;;;80.88;52.45;;;19.10;88.10;;;;;;4940356;28;90700;-88
2023/08/02 05:13:31;;;;;;;80.72;52.55;;;19.10;87.90;;;;;;4941043;28;89812;-88
2023/08/02 05:15:57;;;;;;;81.18;52.50;;;19.10;87.40;;;;;;4945547;28;88796;-88
2023/08/02 05:18:23;;;;;;;80.88;52.50;;;19.10;87.70;;;;;;4945463;28;89465;-88
2023/08/02 05:20:49;;;;;;;81.20;52.78;;;19.10;87.60;;;;;;4938726;28;95021;-88
2023/08/02 05:23:14;;;;;;;81.20;52.85;;;19.10;90.00;;;;;;4940882;28;92548;-88
2023/08/02 05:25:41;;;;;;;84.45;53.15;;;19.10;89.30;;;;;;4942314;28;89578;-87
2023/08/02 05:28:07;;;;;;;82.65;53.65;;;19.10;88.00;;;;;;4932364;28;89603;-87
2023/08/02 05:30:34;;;;;;;82.03;52.97;;;19.10;89.80;;;;;;4938240;28;93598;-87
2023/08/02 05:33:00;;;;;;;85.50;54.33;;;19.20;89.80;;;;;;4937706;28;92247;-87
2023/08/02 05:35:26;;;;;;;83.32;53.33;;;19.10;90.70;;;;;;4938824;28;89201;-87
2023/08/02 05:37:52;;;;;;;82.30;53.70;;;19.10;86.90;;;;;;4945952;28;89517;-87
2023/08/02 05:40:18;;;;;;;85.85;54.40;;;19.10;88.70;;;;;;4942567;28;90176;-87
2023/08/02 05:42:44;;;;;;;85.32;54.38;;;19.20;89.60;;;;;;4951411;28;92784;-87
2023/08/02 05:45:10;;;;;;;83.60;54.05;;;19.20;87.80;;;;;;4969853;28;91781;-87
2023/08/02 05:47:36;;;;;;;90.07;55.03;;;19.20;88.00;;;;;;4963652;28;90062;-88
2023/08/02 05:50:02;;;;;;;86.32;54.72;;;19.20;90.40;;;;;;4962651;28;93321;-87
2023/08/02 05:52:28;;;;;;;86.88;55.53;;;19.20;89.40;;;;;;4963324;28;91411;-87
2023/08/02 05:54:55;;;;;;;88.38;55.80;;;19.20;89.10;;;;;;4975131;28;91860;-88
2023/08/02 05:57:20;;;;;;;85.30;54.72;;;19.20;89.30;;;;;;4973228;28;91544;-90
2023/08/02 05:59:48;;;;;;;87.95;56.00;;;19.20;88.80;;;;;;4971231;28;91848;-87
2023/08/02 06:02:14;;;;;;;87.80;55.50;;;19.20;89.10;;;;;;4967085;28;91358;-90
2023/08/02 06:04:45;;;;;;;90.75;56.00;;;19.20;88.30;;;;;;4974046;28;90751;-88
2023/08/02 06:07:11;;;;;;;85.80;55.28;;;19.20;90.40;;;;;;4954033;28;90956;-85
2023/08/02 06:09:37;;;;;;;92.82;56.30;;;19.30;88.90;;;;;;4964915;28;90174;-86
2023/08/02 06:12:02;;;;;;;88.72;56.03;;;19.30;89.90;;;;;;4960539;28;89408;-86
2023/08/02 06:14:28;;;;;;;88.32;55.20;;;19.30;87.60;;;;;;4965443;28;89724;-86
2023/08/02 06:16:54;;;;;;;89.20;55.60;;;19.40;88.40;;;;;;4964977;28;95192;-85
2023/08/02 06:19:19;;;;;;;86.50;54.97;;;19.40;88.60;;;;;;4967423;28;96078;-85
2023/08/02 06:21:45;;;;;;;89.10;55.85;;;19.40;86.90;;;;;;4965245;28;91798;-87
2023/08/02 06:24:10;;;;;;;87.63;54.95;;;19.40;89.50;;;;;;4965521;28;90097;-87
2023/08/02 06:26:36;;;;;;;85.70;54.40;;;19.50;87.90;;;;;;4968393;28;88948;-87
2023/08/02 06:29:02;;;;;;;87.93;55.30;;;19.50;89.00;;;;;;4962803;28;89368;-85
2023/08/02 06:31:28;;;;;;;87.82;54.58;;;19.60;90.10;;;;;;4960774;28;90053;-87
2023/08/02 06:33:53;;;;;;;87.22;55.40;;;19.50;89.50;;;;;;4968097;28;92570;-87
2023/08/02 06:36:19;;;;;;;85.00;54.50;;;19.60;90.30;;;;;;4966537;28;90051;-86
2023/08/02 06:38:48;;;;;;;85.28;54.67;;;19.60;86.90;;;;;;4957942;28;92635;-88
2023/08/02 06:41:13;;;;;;;85.22;54.58;;;19.70;87.10;;;;;;4962172;28;89737;-88
2023/08/02 06:43:39;;;;;;;88.05;54.20;;;19.70;86.40;;;;;;4961901;28;90409;-88
2023/08/02 06:46:05;;;;;;;88.80;55.17;;;19.70;85.40;;;;;;4961612;28;88826;-85
2023/08/02 06:48:31;;;;;;;84.50;54.35;;;19.80;89.10;;;;;;4961209;28;93024;-87
2023/08/02 06:50:56;;;;;;;89.82;55.10;;;19.80;85.90;;;;;;4964870;28;92228;-86
2023/08/02 06:53:22;;;;;;;85.90;54.72;;;19.90;88.10;;;;;;4960828;28;93503;-87
2023/08/02 06:55:48;;;;;;;92.93;56.08;;;19.90;86.30;;;;;;4958584;28;91192;-86
2023/08/02 06:58:13;;;;;;;97.72;56.00;;;20.00;85.50;;;;;;4960800;28;90819;-87
2023/08/02 07:00:40;;;;;;;96.95;57.42;;;20.00;86.80;;;;;;4962414;28;89501;-85
2023/08/02 07:03:06;;;;;;;98.47;57.35;;;20.10;86.40;;;;;;4961443;28;89522;-86
2023/08/02 07:05:34;;;;;;;97.25;57.80;;;20.10;86.70;;;;;;4971194;28;89564;-85
2023/08/02 07:08:01;;;;;;;94.70;56.38;;;20.10;87.50;;;;;;4962989;28;94240;-85
2023/08/02 07:10:28;;;;;;;97.32;57.92;;;20.20;84.80;;;;;;4964735;28;93956;-87
2023/08/02 07:12:55;;;;;;;94.88;57.35;;;20.20;86.10;;;;;;4964802;28;91446;-86
2023/08/02 07:15:21;;;;;;;92.88;56.60;;;20.20;88.50;;;;;;4967762;28;89846;-88
2023/08/02 07:17:47;;;;;;;94.18;56.85;;;20.30;85.80;;;;;;4963584;28;89662;-88
2023/08/02 07:20:14;;;;;;;97.95;57.17;;;20.30;87.50;;;;;;4965590;28;92265;-90
2023/08/02 07:22:43;;;;;;;87.82;55.65;;;20.40;87.40;;;;;;4972664;28;90573;-90
2023/08/02 07:25:09;;;;;;;86.88;53.78;;;20.60;91.80;;;;;;4965735;28;88478;-90
2023/08/02 07:27:35;;;;;;;85.30;53.85;;;20.80;92.60;;;;;;4961729;28;90049;-91
2023/08/02 07:30:02;;;;;;;86.47;54.45;;;20.80;93.90;;;;;;4971402;28;89812;-91
2023/08/02 07:32:29;;;;;;;92.43;54.58;;;20.90;92.80;;;;;;4963713;28;90167;-90
2023/08/02 07:34:54;;;;;;;85.90;54.25;;;21.00;92.50;;;;;;4967694;28;89312;-90
2023/08/02 07:37:20;;;;;;;86.25;53.92;;;21.10;92.40;;;;;;4962993;28;92803;-91
2023/08/02 07:39:46;;;;;;;86.93;54.45;;;21.10;92.60;;;;;;4960711;28;91665;-92
2023/08/02 07:42:11;;;;;;;86.13;54.28;;;21.20;91.80;;;;;;4967939;28;88858;-91
2023/08/02 07:44:37;;;;;;;87.00;55.00;;;21.30;92.10;;;;;;4985612;28;88866;-91
2023/08/02 07:47:04;;;;;;;87.88;54.65;;;21.40;91.70;;;;;;4966542;28;91901;-90
2023/08/02 07:49:31;;;;;;;87.75;54.78;;;21.50;90.80;;;;;;4977087;28;93163;-92
2023/08/02 07:51:56;;;;;;;87.68;54.83;;;21.70;91.00;;;;;;4979147;28;89529;-91
2023/08/02 07:54:22;;;;;;;85.90;54.05;;;21.80;90.60;;;;;;4963937;28;90975;-93
2023/08/02 07:56:47;;;;;;;94.47;56.03;;;21.80;91.30;;;;;;4970220;28;93338;-92
2023/08/02 07:59:13;;;;;;;89.03;54.50;;;21.90;88.00;;;;;;4970327;28;92268;-91
2023/08/02 08:01:41;;;;;;;88.22;54.95;;;22.00;90.90;;;;;;4969501;28;89343;-90
2023/08/02 08:04:07;;;;;;;87.97;54.80;;;22.00;90.20;;;;;;4985258;28;88709;-92
2023/08/02 08:06:32;;;;;;;86.82;54.45;;;22.20;89.10;;;;;;4984138;28;90959;-92
2023/08/02 08:08:58;;;;;;;88.75;55.15;;;22.10;90.60;;;;;;5004006;28;89933;-92
2023/08/02 08:11:27;;;;;;;87.82;55.08;;;22.20;89.80;;;;;;4972775;28;89294;-92
2023/08/02 08:13:53;;;;;;;85.72;54.30;;;22.20;88.20;;;;;;4968714;28;88976;-92
2023/08/02 08:16:19;;;;;;;85.85;53.95;;;22.10;91.10;;;;;;4969583;28;91641;-92
2023/08/02 08:18:44;;;;;;;87.30;54.75;;;22.00;90.70;;;;;;4982351;28;91974;-92
2023/08/02 08:21:10;;;;;;;84.60;53.78;;;21.90;90.60;;;;;;4985416;28;91130;-93
2023/08/02 08:23:36;;;;;;;89.13;54.13;;;21.80;91.80;;;;;;4972886;28;89075;-93
2023/08/02 08:26:01;;;;;;;85.82;54.03;;;21.80;91.60;;;;;;4990107;28;90246;-93
2023/08/02 08:28:27;;;;;;;87.63;54.28;;;21.80;91.30;;;;;;4968486;28;92438;-91
2023/08/02 08:31:01;;;;;;;84.80;53.60;;;21.80;91.60;;;;;;4965416;28;89516;-91
2023/08/02 08:33:27;;;;;;;85.05;53.88;;;21.80;91.80;;;;;;4966829;28;89262;-91
2023/08/02 08:35:52;;;;;;;85.05;53.88;;;21.80;92.10;;;;;;4966142;28;89493;-92
2023/08/02 08:38:18;;;;;;;86.20;54.25;;;21.80;91.20;;;;;;4972980;28;89939;-90
2023/08/02 08:40:50;;;;;;;85.25;53.85;;;21.80;91.10;;;;;;4964997;28;89109;-92
2023/08/02 08:43:16;;;;;;;84.97;53.20;;;21.90;90.90;;;;;;4964938;28;89260;-91
2023/08/02 08:45:43;;;;;;;83.47;53.00;;;21.90;91.40;;;;;;4966235;28;91193;-90
2023/08/02 08:48:09;;;;;;;83.70;53.05;;;21.70;90.00;;;;;;4971519;28;89917;-90
2023/08/02 08:50:35;;;;;;;83.85;53.15;;;21.70;90.30;;;;;;4965281;28;89320;-90
2023/08/02 08:53:04;;;;;;;82.93;53.15;;;21.80;90.70;;;;;;4968952;28;88598;-93
2023/08/02 08:55:32;;;;;;;93.28;53.42;;;21.80;90.40;;;;;;4971042;28;90949;-93
2023/08/02 08:57:58;;;;;;;87.32;53.42;;;21.90;90.80;;;;;;4984112;28;88818;-92
2023/08/02 09:00:27;;;;;;;87.40;53.75;;;22.00;90.80;;;;;;4967548;28;88654;-92
2023/08/02 09:02:53;;;;;;;87.18;53.55;;;22.00;90.60;;;;;;4963683;28;91854;-87
2023/08/02 09:05:19;;;;;;;86.28;53.60;;;22.10;90.70;;;;;;4964661;28;92689;-90
2023/08/02 09:07:45;;;;;;;86.03;53.65;;;22.10;90.60;;;;;;4963564;28;92759;-90
2023/08/02 09:10:11;;;;;;;86.32;53.53;;;22.10;90.80;;;;;;4963809;28;89864;-92
2023/08/02 09:12:44;;;;;;;88.45;53.60;;;22.10;90.40;;;;;;4966336;28;90201;-91
2023/08/02 09:15:13;;;;;;;87.10;53.95;;;22.10;90.10;;;;;;4976664;28;90398;-91
2023/08/02 09:17:50;;;;;;;88.10;54.08;;;22.30;90.00;;;;;;4968166;28;91302;-91
2023/08/02 09:20:18;;;;;;;88.78;54.08;;;22.40;89.20;;;;;;4987004;28;88722;-90
2023/08/02 09:22:44;;;;;;;90.43;54.22;;;22.40;89.90;;;;;;4985314;28;88913;-91
2023/08/02 09:25:21;;;;;;;88.03;54.15;;;22.20;88.10;;;;;;4966886;28;91599;-91
2023/08/02 09:27:48;;;;;;;88.90;54.05;;;22.10;83.10;;;;;;4967133;28;90009;-92
2023/08/02 09:30:23;;;;;;;88.97;54.05;;;22.00;83.40;;;;;;4970245;28;89477;-90
2023/08/02 09:33:02;;;;;;;88.72;54.22;;;21.90;80.40;;;;;;4966459;28;89322;-91
2023/08/02 09:35:31;;;;;;;91.10;54.03;;;21.90;80.40;;;;;;4980086;28;93332;-90
2023/08/02 09:37:56;;;;;;;88.55;53.80;;;21.90;78.90;;;;;;4975812;28;92829;-91
2023/08/02 09:40:38;;;;;;;87.07;54.05;;;21.90;78.90;;;;;;4985535;28;88698;-91
2023/08/02 09:43:04;;;;;;;86.68;54.13;;;21.90;76.90;;;;;;4968360;28;88741;-92
2023/08/02 09:45:34;;;;;;;91.05;54.05;;;21.80;76.30;;;;;;4964524;28;90058;-90
2023/08/02 09:48:00;;;;;;;90.15;53.88;;;21.90;77.40;;;;;;4977187;28;92509;-92
2023/08/02 09:50:27;;;;;;;88.45;54.10;;;21.90;76.50;;;;;;4975089;28;88643;-92
2023/08/02 09:52:57;;;;;;;;;;;21.90;75.60;;;;;;4992003;28;88035;-92
2023/08/02 09:55:23;;;;;;;92.93;54.33;;;21.90;77.30;;;;;;4975113;28;91723;-91
2023/08/02 09:57:49;;;;;;;92.05;54.78;;;21.90;76.20;;;;;;4973699;28;89444;-93
2023/08/02 10:00:17;;;;;;;92.25;54.55;;;22.00;77.60;;;;;;4970214;28;89632;-91
2023/08/02 10:02:43;;;;;;;92.32;54.30;;;22.00;76.10;;;;;;4986245;28;88869;-92
2023/08/02 10:05:12;;;;;;;91.22;54.80;;;22.20;76.90;;;;;;4990170;28;89241;-91
2023/08/02 10:07:49;;;;;;;90.40;55.05;;;22.40;76.60;;;;;;4983906;28;88719;-90
2023/08/02 10:10:38;;;;;;;93.22;54.88;;;22.60;74.20;;;;;;4996570;28;89315;-91
2023/08/02 10:13:26;;;;;;;91.40;54.83;;;22.50;73.40;;;;;;4992148;28;88782;-92
2023/08/02 10:15:52;;;;;;;87.90;54.55;;;22.60;71.00;;;;;;4976709;28;89339;-91
2023/08/02 10:18:18;;;;;;;91.40;54.33;;;22.60;70.20;;;;;;4980309;28;90118;-92
2023/08/02 10:20:48;;;;;;;89.13;54.33;;;22.60;70.80;;;;;;4993403;22;89275;-43
2023/08/02 10:23:13;;;;;;;89.53;54.45;;;22.50;71.90;;;;;;4944281;28;91081;-43
2023/08/02 10:25:42;;;;;;;88.65;54.13;;;22.50;72.20;;;;;;4963393;28;92139;-46
2023/08/02 10:28:08;;;;;;;90.15;54.08;;;22.50;74.00;;;;;;4968761;28;90181;-46
2023/08/02 10:30:35;;;;;;;89.72;54.05;;;22.50;69.80;;;;;;4964081;28;90171;-46
2023/08/02 10:33:14;;;;;;;90.45;54.30;;;22.60;70.60;;;;;;4972222;28;89681;-45
2023/08/02 10:36:01;;;;;;;88.22;54.13;;;22.70;69.00;;;;;;4962405;28;90294;-44
2023/08/02 10:38:36;;;;;;;88.10;54.13;;;22.70;68.80;;;;;;4963917;28;89673;-42
2023/08/02 10:41:07;;;;;;;87.85;54.40;;;22.60;68.40;;;;;;4960263;28;90660;-44
2023/08/02 10:43:33;;;;;;;;;;;22.60;66.30;;;;;;4965141;28;89360;-47
2023/08/02 10:46:18;;;;;;;93.97;53.97;;;22.70;66.00;;;;;;4963764;28;90776;-47
2023/08/02 10:48:44;;;;;;;88.00;54.15;;;22.80;66.50;;;;;;4956639;28;90832;-44
2023/08/02 10:51:33;;;;;;;88.03;54.08;;;22.90;65.30;;;;;;4961478;28;92404;-50
2023/08/02 10:54:21;;;;;;;89.90;54.55;;;23.00;65.30;;;;;;4959783;28;91281;-46
2023/08/02 10:56:53;;;;;;;90.65;54.53;;;23.00;64.60;;;;;;4958790;28;92526;-44
2023/08/02 10:59:25;;;;;;;90.68;54.92;;;23.20;64.70;;;;;;4965919;28;89718;-45
2023/08/02 11:01:53;;;;;;;92.93;54.55;;;23.20;64.10;;;;;;4955861;28;90035;-45
2023/08/02 11:04:19;;;;;;;88.28;54.72;;;23.30;64.90;;;;;;4959239;28;90691;-45
2023/08/02 11:06:45;;;;;;;90.15;54.50;;;23.20;65.50;;;;;;4963857;28;91052;-47
2023/08/02 11:09:10;;;;;;;89.70;54.95;;;23.30;65.80;;;;;;4968301;28;89370;-46
2023/08/02 11:11:36;;;;;;;88.60;54.42;;;23.20;65.90;;;;;;4965405;28;91761;-46
2023/08/02 11:14:02;;;;;;;90.88;54.78;;;23.10;65.80;;;;;;4959053;28;91528;-46
2023/08/02 11:16:28;;;;;;;90.05;54.42;;;23.10;65.40;;;;;;4961040;28;94421;-42
2023/08/02 11:18:54;;;;;;;93.85;54.72;;;23.00;66.00;;;;;;4959824;28;91560;-56
2023/08/02 11:21:19;;;;;;;88.00;54.17;;;23.10;66.00;;;;;;4960159;28;92935;-50
2023/08/02 11:23:49;;;;;;;88.88;54.15;;;22.90;66.20;;;;;;4960691;28;90509;-49
2023/08/02 11:26:17;;;;;;;89.60;54.13;;;22.90;66.70;;;;;;4960227;28;90823;-51
2023/08/02 11:28:48;;;;;;;86.18;53.75;;;22.90;66.30;;;;;;4960307;28;93134;-46
2023/08/02 11:31:15;;;;;;;90.50;54.20;;;22.80;68.00;;;;;;4963385;28;92065;-43
2023/08/02 11:33:41;;;;;;;85.75;53.65;;;22.80;67.80;;;;;;4960903;28;89803;-50
2023/08/02 11:36:07;;;;;;;86.18;53.92;;;22.90;68.00;;;;;;4962257;28;90181;-47
2023/08/02 11:38:35;;;;;;;85.03;53.70;;;22.80;68.40;;;;;;4959821;28;91694;-44
2023/08/02 11:41:00;;;;;;;89.07;54.03;;;22.80;66.90;;;;;;4963408;28;96654;-42
2023/08/02 11:43:36;;;;;;;86.55;53.85;;;22.80;65.60;;;;;;4962328;28;89614;-45
2023/08/02 11:46:14;;;;;;;86.60;53.85;;;22.90;64.70;;;;;;4960823;28;90743;-48
2023/08/02 11:48:40;;;;;;;85.82;53.92;;;23.00;65.00;;;;;;4952919;28;90150;-43
2023/08/02 11:51:08;;;;;;;88.28;53.70;;;23.00;63.90;;;;;;4962808;28;92203;-45
2023/08/02 11:53:34;;;;;;;85.75;53.92;;;23.00;63.80;;;;;;4959573;28;92606;-42
2023/08/02 11:56:00;;;;;;;85.80;53.80;;;23.00;62.30;;;;;;4961639;28;94439;-46
2023/08/02 11:58:27;;;;;;;86.97;53.85;;;22.80;61.80;;;;;;4956023;28;95937;-49
2023/08/02 12:00:52;;;;;;;89.00;54.05;;;22.90;62.00;;;;;;4961983;28;89841;-45
2023/08/02 12:03:19;;;;;;;88.55;54.13;;;23.00;61.50;;;;;;4965492;28;91645;-45
2023/08/02 12:05:45;;;;;;;90.20;54.28;;;23.00;61.20;;;;;;4955031;28;94524;-44
2023/08/02 12:08:17;;;;;;;87.63;54.28;;;23.00;62.00;;;;;;4961188;28;91249;-46
2023/08/02 12:10:43;;;;;;;90.07;54.13;;;23.00;61.80;;;;;;4958087;28;91799;-47
2023/08/02 12:13:14;;;;;;;88.32;54.28;;;23.10;63.20;;;;;;4960628;28;89517;-51
2023/08/02 12:16:00;;;;;;;87.65;54.33;;;23.20;62.60;;;;;;4958945;28;94970;-46
2023/08/02 12:18:26;;;;;;;87.88;54.13;;;23.20;62.20;;;;;;4958780;28;89725;-47
2023/08/02 12:20:52;;;;;;;87.22;54.08;;;23.20;62.70;;;;;;4960462;28;90073;-46
2023/08/02 12:23:35;;;;;;;92.10;54.25;;;23.10;64.10;;;;;;4964157;28;89763;-41
2023/08/02 12:26:01;;;;;;;86.72;53.90;;;23.10;62.80;;;;;;4960420;28;91019;-40
2023/08/02 12:28:42;;;;;;;88.03;54.17;;;23.20;63.40;;;;;;4953947;28;90737;-40